WEATHER DATA

YESTERDAY
Time Temp. Dewp. Hum. Wind dir Wind speed Wind gust Bar.
00:04 24.4 15.9 59 45 0.8 1.4 1007
00:14 24.2 16 60 45 0.8 1.1 1006.7
00:23 24 15.8 60 45 0.8 1.4 1006.7
00:34 23.8 15.8 61 25 0.8 1.4 1006.6
00:44 23.7 15.7 61 26 0.3 1.1 1006.5
00:54 23.7 16 62 38 0.3 1.7 1006.4
01:04 23.8 16.1 62 45 0.3 1.1 1006.4
01:14 23.8 16.1 62 26 0.3 1.4 1006.3
01:24 23.8 16.1 62 24 0.8 1.1 1006.2
01:34 23.7 16.2 63 5 0.3 1.1 1006.2
01:45 23.5 16.1 63 12 0.8 1.4 1005.9
02:04 23.3 15.9 63 25 0.3 1.1 1005.6
02:14 23.2 16 64 10 0.3 1.4 1005.6
02:25 23.1 15.9 64 15 0.3 1.1 1005.6
02:35 23 15.8 64 22 0.3 1.4 1005.5
02:44 23 15.8 64 25 0.3 1.1 1005.4
02:55 22.9 16 65 19 0.3 1.1 1005.4
03:05 22.9 16 65 18 0.3 1.1 1005.4
03:15 22.9 16 65 30 0.3 1.1 1005.2
03:25 22.8 15.9 65 14 0.3 1.1 1005.1
03:35 22.7 15.8 65 14 0.3 1.1 1005.1
03:45 22.7 15.8 65 16 0.3 1.1 1005
03:55 22.6 15.7 65 19 0.3 1.1 1005
04:05 22.4 15.7 66 13 0.3 1.1 1005
04:15 22.3 15.6 66 26 0.3 1.1 1005
04:25 22.2 15.6 66 21 0.3 1.1 1004.9
04:35 22.2 15.6 66 35 0.3 1.4 1004.7
04:46 22.3 15.6 66 45 0.3 1.1 1004.6
04:55 22.4 15.7 66 48 0.3 1.7 1004.8
05:05 22.5 16.1 67 53 0.8 2.5 1004.8
05:16 22.7 16.3 67 40 0.3 1.1 1004.9
05:26 22.9 16.5 67 37 0.3 1.1 1004.9
05:36 23 16.5 67 36 0.8 1.4 1004.9
05:46 23.2 16.7 67 41 0.3 1.1 1005
05:56 23.3 16.8 67 38 0.3 1.4 1004.9
06:06 23.5 17 67 51 0.8 1.4 1005
06:16 23.8 17.3 67 45 0.3 1.4 1005
06:27 24.1 17.6 67 51 0.8 1.4 1005.1
06:37 24.3 17.8 67 45 0.8 1.7 1004.9
06:46 24.6 18.1 67 45 0.8 1.7 1005.1
06:56 24.8 18.3 67 34 0.3 1.4 1005.1
07:07 25 18.4 67 30 0.3 1.1 1005.2
07:17 25.2 18.6 67 39 0.8 1.7 1005.2
07:37 25.6 19 67 90 0.3 1.1 1005.3
07:47 25.9 19.1 66 18 0.3 1.1 1005.5
07:57 26 19.2 66 28 0.3 1.1 1005.7
08:07 26.1 19.3 66 42 0.8 1.4 1005.7
08:17 26.2 19.3 66 26 0.8 1.4 1005.8
08:27 26.4 19.5 66 16 0.3 1.1 1005.9
08:37 26.4 19.5 66 32 0.3 0.8 1005.9
08:48 26.7 19.8 66 90 0.3 1.1 1005.8
08:57 27.1 20.2 66 90 0.3 0.8 1005.8
09:07 27.3 20.4 66 0 0.3 1.4 1005.8
09:17 27.6 20.4 65 9 0.8 1.4 1005.8
09:28 28 20.8 65 17 0.8 1.7 1005.8
09:47 28.7 21.5 65 1 1.4 4.7 1005.8
09:57 28.9 21.7 65 354 1.4 3.1 1005.8
10:07 29.1 21.6 64 356 1.4 2.8 1005.7
10:17 29.5 22 64 0 1.1 2.5 1005.8
10:28 29.9 22.4 64 350 1.4 3.1 1005.8
10:38 30 22.2 63 354 1.7 3.6 1005.9
10:47 30.3 22.5 63 45 0.3 1.1 1005.9
10:57 30.7 22.8 63 0 1.4 2.5 1005.9
11:08 30.8 22.7 62 351 1.4 3.1 1005.9
11:18 31.2 23.1 62 9 1.4 3.1 1005.9
11:27 31.2 23.1 62 30 0.8 2.2 1005.8
11:38 31.7 23.3 61 356 1.4 3.1 1005.8
11:48 32 23.5 61 23 0.8 2.5 1005.7
11:58 32.4 23.9 61 3 1.1 2.5 1005.7
12:08 32.6 23.8 60 347 1.1 2.5 1005.7
12:18 32.9 24.1 60 29 0.8 1.7 1005.7
12:28 33.3 24.2 59 19 1.1 1.7 1005.7
12:38 33.3 23.9 58 21 1.4 2.8 1005.7
12:48 32.9 23.3 57 13 1.4 3.1 1005.8
12:59 32.9 23.3 57 353 1.1 2.2 1005.6
13:08 32.9 23.3 57 353 0.3 1.1 1005.5
13:18 33 23.3 57 6 1.1 2.8 1005.4
13:29 33.1 23.1 56 15 1.1 2.5 1005.7
13:39 33.3 23.3 56 40 1.1 1.7 1005.8
13:48 33.3 23.3 56 33 1.4 2.2 1006
13:59 33 22.8 55 45 1.4 2.5 1005.8
14:09 32.7 22.5 55 35 1.1 1.7 1005.7
14:19 32.7 22.5 55 30 1.1 1.7 1005.7
14:28 32.5 22.3 55 33 1.1 2.2 1005.4
14:39 32.3 22.1 55 41 1.1 1.7 1005.2
14:49 32.1 22.2 56 40 0.8 1.4 1004.9
14:59 32 22.1 56 45 0.8 1.7 1005
15:09 31.9 22 56 10 0.8 1.4 1004.9
15:19 31.9 22 56 8 0.8 1.4 1004.9
15:29 32 22.1 56 5 0.8 1.4 1004.9
15:39 32.1 22.2 56 358 1.4 2.5 1005.2
15:50 32.1 22.2 56 353 1.4 2.2 1005.2
15:59 32.1 22.2 56 358 1.1 1.7 1005.1
16:09 32.1 22.2 56 2 0.8 1.4 1004.9
16:20 32.2 22.3 56 14 0.8 1.1 1004.7
16:30 32.3 22.4 56 15 0.3 1.1 1004.8
16:39 32.5 22.6 56 9 0.8 1.4 1004.8
16:49 32.6 22.7 56 23 0.3 1.1 1004.9
17:00 32.9 23 56 36 0.3 1.1 1004.9
17:10 33.3 23.3 56 8 0.8 1.4 1005
17:20 33.5 23.2 55 349 0.8 1.7 1004.9
17:30 33.7 23.4 55 0 1.1 2.5 1005.1
17:40 33.8 23.2 54 353 0.3 1.1 1004.9
17:50 33.8 23.2 54 326 0.8 1.7 1004.8
18:00 33.7 23.1 54 0 0.8 2.2 1004.6
18:10 33.7 22.8 53 270 0.3 1.4 1004.4
18:20 33.6 22.7 53 340 0.8 1.7 1004.4
18:30 33.4 22.5 53 355 0.8 1.7 1004.5
18:41 33.3 22.4 53 326 0.3 1.1 1004.6
18:50 33 21.8 52 336 0.8 1.7 1004.6
19:00 32.9 22.1 53 338 0.8 1.4 1004.7
19:10 32.8 22 53 334 0.8 1.1 1004.8
19:21 32.7 21.9 53 323 0.8 1.7 1004.9
19:31 32.5 21.7 53 336 0.8 1.4 1004.9
19:40 32.1 21.3 53 325 0.8 1.4 1004.9
19:51 31.5 21.1 54 328 0.8 1.7 1004.8
20:01 31 20.6 54 3 0.8 1.4 1004.7
20:11 30.5 20.4 55 350 0.8 1.4 1004.6
20:21 29.8 19.8 55 335 0.8 1.7 1004.9
20:31 29 19 55 34 1.1 2.5 1005.2
20:41 28.5 18.9 56 45 1.1 2.5 1005.6
20:51 27.9 18.3 56 45 0.8 1.7 1005.8
21:01 27.4 17.9 56 58 1.1 2.8 1006.1
21:11 26.9 17.7 57 48 1.1 2.2 1005.9
21:21 26.6 17.4 57 29 1.1 1.7 1005.9
21:31 26.4 17.5 58 14 1.1 1.4 1005.9
21:42 26.2 17.3 58 56 1.1 1.7 1006
21:51 26 17.1 58 61 0.8 2.2 1006.2
22:01 25.8 16.9 58 54 0.8 1.1 1006.2
22:12 25.6 17 59 55 0.8 1.4 1005.7
22:22 25.4 16.8 59 50 0.8 1.4 1006
22:31 25.3 16.7 59 49 0.8 1.4 1005.8
22:41 25.1 16.8 60 51 0.8 1.4 1005.8
22:52 25 16.7 60 40 0.8 1.4 1005.5
23:02 24.9 16.6 60 23 0.8 1.7 1005.7
23:11 24.7 16.4 60 22 0.8 1.4 1005.7
23:22 24.5 16.5 61 29 0.8 1.4 1005.8
23:32 24.4 16.4 61 25 0.8 1.4 1005.7
23:42 24.3 16.3 61 27 0.8 1.4 1005.8
23:52 24.3 16.6 62 33 0.8 1.4 1005.7

DAY STATISTIC

2021-06-21
TEMPERATURE
AVERAGE
28.0
HIGH
33.8
17:40
LOW
22.2
04:25
PRESSURE
AVERAGE
1005.4
HIGH
1007.0
00:04
LOW
1004.4
18:10
DEWPOINT
AVERAGE
19.6
HIGH
24.2
12:28
LOW
15.6
04:15
HUMIDITY
AVERAGE
60
HIGH
67
05:05
LOW
52
18:50
WIND SPEED
AVERAGE
0.7
HIGH
1.7
10:38
WIND GUST
AVERAGE
1.7
HIGH
4.7
09:47
WIND DIRECTION
PREVAILING
NE
48.6%
N
42.1
NE
48.6
E
2.1
SE
0.0
S
0.0
SW
0.0
W
0.7
NW
6.4
TEMPERATURE (°C)
LOW
22.2
HIGH
33.8
AVERAGE
28.0
PRESSURE (hpa)
LOW
1004.4
HIGH
1007.0
AVERAGE
1005.4
DEVICE